Time;durP1;ratioP1;P1;durP2;ratioP2;P2;SDS_P1;SDS_P2;PMS_P1;PMS_P2;Temp;Humidity;BMP_temperature;BMP_pressure;BME280_temperature;BME280_humidity;BME280_pressure;Samples;Min_cycle;Max_cycle;Signal;HPM_P1;HPM_P2
2021/06/25 00:00:11;;;;;;;1.80;1.20;;;;;;;22.15;61.52;101963.75;5022636;28;20068;-65
2021/06/25 00:02:38;;;;;;;1.20;0.90;;;;;;;22.16;61.48;101957.41;5011412;28;20061;-65
2021/06/25 00:05:06;;;;;;;2.22;1.35;;;;;;;22.15;61.48;101956.56;5003206;28;20034;-64
2021/06/25 00:07:32;;;;;;;1.85;1.20;;;;;;;22.16;61.34;101946.72;5014702;28;20042;-64
2021/06/25 00:09:57;;;;;;;1.83;1.33;;;;;;;22.14;61.13;101952.25;5010780;28;20030;-64
2021/06/25 00:12:22;;;;;;;2.13;1.20;;;;;;;22.15;61.77;101953.91;5001025;28;20026;-64
2021/06/25 00:14:48;;;;;;;1.67;1.30;;;;;;;22.15;61.46;101942.38;5017723;28;20036;-64
2021/06/25 00:17:14;;;;;;;1.98;1.20;;;;;;;22.14;61.31;101936.22;4999223;28;20463;-64
2021/06/25 00:19:39;;;;;;;2.40;1.30;;;;;;;22.14;61.78;101938.88;5009671;28;20099;-63
2021/06/25 00:22:05;;;;;;;2.28;1.33;;;;;;;22.15;61.65;101942.38;5015954;28;20474;-64
2021/06/25 00:24:30;;;;;;;1.92;1.13;;;;;;;22.15;62.27;101937.88;5020758;28;20035;-65
2021/06/25 00:26:56;;;;;;;1.73;1.30;;;;;;;22.16;62.05;101933.34;5015644;28;20068;-63
2021/06/25 00:29:22;;;;;;;1.75;1.10;;;;;;;22.15;62.14;101931.69;5015274;28;20072;-64
2021/06/25 00:31:48;;;;;;;1.70;1.15;;;;;;;22.14;62.27;101930.84;5015808;28;20045;-64
2021/06/25 00:34:14;;;;;;;2.67;1.10;;;;;;;22.15;61.99;101932.53;5004700;28;20030;-63
2021/06/25 00:36:39;;;;;;;1.77;1.30;;;;;;;22.15;62.50;101937.88;5017979;28;20500;-64
2021/06/25 00:39:05;;;;;;;1.60;1.20;;;;;;;22.15;62.48;101937.88;5003499;28;20036;-64
2021/06/25 00:41:30;;;;;;;2.50;1.40;;;;;;;22.15;62.46;101927.16;5012898;28;20386;-66
2021/06/25 00:43:56;;;;;;;1.40;1.15;;;;;;;22.15;62.25;101923.66;5016028;28;20042;-64
2021/06/25 00:46:22;;;;;;;2.00;1.48;;;;;;;22.15;62.53;101921.00;5002995;28;20499;-65
2021/06/25 00:48:48;;;;;;;1.70;1.15;;;;;;;22.15;62.66;101926.34;5016171;28;20081;-64
2021/06/25 00:51:14;;;;;;;1.90;1.30;;;;;;;22.14;62.33;101930.84;5016441;28;20045;-65
2021/06/25 00:53:41;;;;;;;2.05;1.50;;;;;;;22.15;62.33;101929.00;5000632;28;20861;-64
2021/06/25 00:56:06;;;;;;;1.90;1.35;;;;;;;22.15;62.63;101927.16;5015152;28;20477;-65
2021/06/25 00:58:32;;;;;;;2.40;1.40;;;;;;;22.15;62.37;101921.00;5021040;28;20048;-64
2021/06/25 01:00:57;;;;;;;1.98;1.40;;;;;;;22.14;62.30;101922.84;5000757;28;20482;-64
2021/06/25 01:03:23;;;;;;;1.58;1.23;;;;;;;22.14;62.18;101930.03;5003476;28;20038;-63
2021/06/25 01:05:48;;;;;;;1.52;1.17;;;;;;;22.15;62.53;101923.66;5016744;28;20026;-63
2021/06/25 01:08:14;;;;;;;1.98;1.30;;;;;;;22.15;62.53;101929.00;4996870;28;20432;-65
2021/06/25 01:10:41;;;;;;;1.80;1.20;;;;;;;22.15;62.43;101943.22;5005377;28;20026;-63
2021/06/25 01:13:07;;;;;;;1.77;1.27;;;;;;;22.15;62.17;101934.34;4992197;28;20125;-64
2021/06/25 01:15:33;;;;;;;1.30;1.10;;;;;;;22.14;62.49;101938.88;5017810;28;20038;-64
2021/06/25 01:17:59;;;;;;;1.75;1.30;;;;;;;22.14;62.16;101935.38;5018387;28;21701;-63
2021/06/25 01:20:27;;;;;;;2.00;1.40;;;;;;;22.14;61.96;101948.75;5002864;28;20389;-63
2021/06/25 01:22:53;;;;;;;2.00;1.30;;;;;;;22.14;61.80;101951.41;5011649;28;20037;-63
2021/06/25 01:25:27;;;;;;;2.22;1.48;;;;;;;22.11;61.80;101965.97;5001145;28;20034;-63
2021/06/25 01:28:04;;;;;;;1.45;1.27;;;;;;;22.11;61.87;101958.78;4992795;28;20034;-63
2021/06/25 01:30:33;;;;;;;1.80;1.10;;;;;;;22.13;61.57;101960.44;5000119;28;20048;-63
2021/06/25 01:33:00;;;;;;;1.83;1.40;;;;;;;22.12;61.85;101948.94;4991680;28;20112;-64
2021/06/25 01:35:26;;;;;;;1.70;1.33;;;;;;;22.12;61.71;101964.97;5008600;28;20088;-64
2021/06/25 01:37:52;;;;;;;2.05;1.30;;;;;;;22.13;61.82;101965.78;4990290;28;20042;-64
2021/06/25 01:40:18;;;;;;;1.92;1.30;;;;;;;22.13;61.68;101971.13;5009558;28;20117;-64
2021/06/25 01:42:45;;;;;;;2.60;1.23;;;;;;;22.13;61.65;101965.78;4981895;28;20493;-65
2021/06/25 01:45:14;;;;;;;1.83;1.17;;;;;;;22.12;61.83;101962.28;5009313;28;20302;-64
2021/06/25 01:47:41;;;;;;;2.40;1.52;;;;;;;22.12;61.64;101959.63;5008763;28;20458;-64
2021/06/25 01:50:12;;;;;;;1.83;1.20;;;;;;;22.12;61.91;101948.94;5008953;28;20103;-64
2021/06/25 01:52:49;;;;;;;1.92;1.30;;;;;;;22.11;61.60;101960.63;4999215;28;20060;-64
2021/06/25 01:55:14;;;;;;;3.30;1.55;;;;;;;22.11;61.67;101957.97;4988024;28;20033;-64
2021/06/25 01:57:41;;;;;;;2.55;1.40;;;;;;;22.10;61.22;101951.78;4999927;28;20077;-64
2021/06/25 02:00:08;;;;;;;2.08;1.27;;;;;;;22.10;61.28;101946.44;4995477;28;20045;-64
2021/06/25 02:02:34;;;;;;;2.20;1.30;;;;;;;22.11;61.20;101944.59;5000680;28;20125;-64
2021/06/25 02:04:59;;;;;;;1.40;1.10;;;;;;;22.11;61.19;101936.59;5007513;28;20110;-63
2021/06/25 02:07:25;;;;;;;4.35;1.45;;;;;;;22.09;61.36;101963.50;5006302;28;20145;-68
2021/06/25 02:09:50;;;;;;;1.98;1.20;;;;;;;22.10;61.44;101964.31;5008971;28;20189;-65
2021/06/25 02:12:16;;;;;;;1.83;1.40;;;;;;;22.10;61.03;101949.13;5008967;28;20046;-64
2021/06/25 02:14:42;;;;;;;2.45;1.20;;;;;;;22.10;61.38;101945.63;5007339;28;20041;-66
2021/06/25 02:17:08;;;;;;;1.70;1.20;;;;;;;22.10;61.15;101946.44;4991135;28;20037;-65
2021/06/25 02:19:33;;;;;;;3.35;1.52;;;;;;;22.09;61.45;101941.25;5008327;28;20042;-64
2021/06/25 02:21:59;;;;;;;1.85;1.20;;;;;;;22.09;61.20;101939.44;5007781;28;20053;-64
2021/06/25 02:24:25;;;;;;;1.80;1.15;;;;;;;22.09;61.36;101944.78;5008964;28;20041;-64
2021/06/25 02:26:50;;;;;;;1.58;1.10;;;;;;;22.09;61.52;101944.78;4991502;28;20048;-64
2021/06/25 02:29:16;;;;;;;1.95;1.27;;;;;;;22.09;61.72;101936.78;4991130;28;20056;-64
2021/06/25 02:31:41;;;;;;;2.63;1.30;;;;;;;22.09;61.67;101952.81;5007198;28;20042;-65
2021/06/25 02:34:07;;;;;;;2.63;1.40;;;;;;;22.09;61.43;101935.91;5008627;28;20123;-64
2021/06/25 02:36:32;;;;;;;1.55;1.00;;;;;;;22.08;61.65;101935.09;5007481;28;20133;-64
2021/06/25 02:38:58;;;;;;;2.30;1.30;;;;;;;22.09;61.89;101941.25;4991342;28;20064;-65
2021/06/25 02:41:23;;;;;;;1.60;1.17;;;;;;;22.10;61.72;101948.28;5008663;28;20493;-64
2021/06/25 02:43:50;;;;;;;1.70;1.30;;;;;;;22.09;61.47;101938.59;5008814;28;20038;-65
2021/06/25 02:46:16;;;;;;;2.00;1.25;;;;;;;22.09;61.45;101933.25;5008012;28;20045;-64
2021/06/25 02:48:42;;;;;;;2.63;1.40;;;;;;;22.08;61.45;101932.41;5010018;28;20037;-64
2021/06/25 02:51:07;;;;;;;2.47;1.20;;;;;;;22.08;61.77;101932.41;4994114;28;20045;-65
2021/06/25 02:53:33;;;;;;;2.40;1.58;;;;;;;22.08;61.77;101936.94;5011405;28;20401;-64
2021/06/25 02:55:58;;;;;;;2.42;1.38;;;;;;;22.08;61.83;101928.91;5005413;28;20493;-64
2021/06/25 02:58:25;;;;;;;1.92;1.08;;;;;;;22.08;61.70;101932.41;4995065;28;20385;-65
2021/06/25 03:00:53;;;;;;;2.00;1.30;;;;;;;22.09;61.47;101933.25;4994457;28;20499;-65
2021/06/25 03:03:19;;;;;;;2.08;1.20;;;;;;;22.07;61.48;101933.44;5011811;28;20080;-64
2021/06/25 03:05:45;;;;;;;2.22;1.20;;;;;;;22.07;61.70;101928.09;5001542;28;20053;-63
2021/06/25 03:08:12;;;;;;;2.40;1.20;;;;;;;22.08;61.37;101923.56;5011085;28;20030;-63
2021/06/25 03:10:37;;;;;;;1.85;1.30;;;;;;;22.07;61.74;101909.38;5012339;28;20030;-64
2021/06/25 03:13:04;;;;;;;2.35;1.38;;;;;;;22.07;61.75;101911.22;5011107;28;20040;-63
2021/06/25 03:15:30;;;;;;;2.13;1.38;;;;;;;22.07;61.56;101913.91;5012329;28;20033;-68
2021/06/25 03:17:55;;;;;;;2.35;1.15;;;;;;;22.07;61.83;101912.06;5011818;28;20034;-65
2021/06/25 03:20:21;;;;;;;2.83;1.30;;;;;;;22.07;61.67;101909.38;5011077;28;20038;-63
2021/06/25 03:22:46;;;;;;;1.23;0.95;;;;;;;22.07;61.32;101885.34;5010828;28;20116;-63
2021/06/25 03:25:12;;;;;;;2.00;1.10;;;;;;;22.06;61.39;101888.19;5010555;28;20121;-64
2021/06/25 03:27:37;;;;;;;2.35;1.23;;;;;;;22.06;61.08;101889.03;5011112;28;20038;-63
2021/06/25 03:30:05;;;;;;;3.17;1.17;;;;;;;22.06;61.26;101886.34;5010919;28;20389;-63
2021/06/25 03:32:30;;;;;;;2.33;1.40;;;;;;;22.05;60.87;101876.69;5011299;28;20038;-68
2021/06/25 03:34:56;;;;;;;1.77;1.27;;;;;;;22.05;61.06;101876.69;5011936;28;20091;-68
2021/06/25 03:37:21;;;;;;;1.30;1.10;;;;;;;;;;5010008;28;20053;-63
2021/06/25 03:39:47;;;;;;;2.40;1.48;;;;;;;22.05;60.71;101884.69;4994125;28;20052;-64
2021/06/25 03:42:12;;;;;;;1.88;1.13;;;;;;;22.04;60.81;101885.69;5011829;28;20041;-64
2021/06/25 03:44:37;;;;;;;2.40;1.10;;;;;;;;;;5006949;28;20027;-63
2021/06/25 03:47:03;;;;;;;2.88;1.30;;;;;;;22.04;60.74;101893.69;5000855;28;20032;-63
2021/06/25 03:49:28;;;;;;;1.67;1.10;;;;;;;22.04;60.73;101896.38;5001686;28;20026;-63
2021/06/25 03:51:54;;;;;;;2.10;1.33;;;;;;;22.03;60.57;101891.22;5010425;28;20358;-64
2021/06/25 03:54:19;;;;;;;2.10;1.20;;;;;;;22.05;60.79;101887.38;4997573;28;20046;-64
2021/06/25 03:56:46;;;;;;;2.72;1.13;;;;;;;22.04;60.83;101880.34;4998077;28;20077;-63
2021/06/25 03:59:11;;;;;;;2.80;1.27;;;;;;;22.03;60.83;101876.00;5002856;28;20034;-64
2021/06/25 04:01:37;;;;;;;2.00;1.20;;;;;;;22.03;60.89;101885.88;5009842;28;20049;-63
2021/06/25 04:04:02;;;;;;;2.88;1.30;;;;;;;22.02;60.64;101886.88;5000746;28;20505;-64
2021/06/25 04:06:28;;;;;;;2.33;1.00;;;;;;;22.02;60.97;101892.22;4994859;28;20481;-63
2021/06/25 04:08:53;;;;;;;1.85;1.15;;;;;;;22.03;60.46;101885.88;5011453;28;20572;-63
2021/06/25 04:11:19;;;;;;;2.53;1.55;;;;;;;22.01;60.29;101887.91;4993053;28;20503;-63
2021/06/25 04:13:45;;;;;;;3.17;1.17;;;;;;;22.01;60.63;101883.38;4993125;28;20473;-63
2021/06/25 04:16:10;;;;;;;1.85;1.15;;;;;;;22.02;60.42;101892.22;5011135;28;20041;-64
2021/06/25 04:18:36;;;;;;;1.98;1.17;;;;;;;22.01;60.08;101877.22;4993283;28;20477;-64
2021/06/25 04:21:01;;;;;;;2.08;1.17;;;;;;;22.01;60.22;101879.88;5010412;28;20133;-64
2021/06/25 04:23:27;;;;;;;2.35;1.13;;;;;;;22.01;60.19;101877.22;5009429;28;20044;-64
2021/06/25 04:25:52;;;;;;;3.67;1.42;;;;;;;22.00;60.31;101883.56;5010648;28;20037;-64
2021/06/25 04:28:18;;;;;;;2.10;1.15;;;;;;;22.00;60.10;101884.41;5010190;28;20529;-64
2021/06/25 04:30:44;;;;;;;2.25;1.20;;;;;;;21.99;59.99;101885.41;5010494;28;20417;-64
2021/06/25 04:33:14;;;;;;;1.92;0.98;;;;;;;22.00;60.18;101887.06;5010382;28;20564;-63
2021/06/25 04:35:41;;;;;;;2.60;1.17;;;;;;;22.01;60.10;101890.56;5009181;28;20049;-64
2021/06/25 04:38:06;;;;;;;2.22;0.90;;;;;;;21.99;60.22;101896.09;5009335;28;20057;-63
2021/06/25 04:40:34;;;;;;;2.08;1.23;;;;;;;22.00;60.24;101902.28;4998067;28;20045;-63
2021/06/25 04:43:00;;;;;;;1.75;1.10;;;;;;;21.99;60.36;101895.28;5009779;28;20037;-63
2021/06/25 04:45:25;;;;;;;1.92;1.00;;;;;;;21.99;60.21;101890.75;5010073;28;20052;-63
2021/06/25 04:47:51;;;;;;;2.17;1.30;;;;;;;22.00;60.17;101888.91;5008386;28;20033;-64
2021/06/25 04:50:17;;;;;;;2.92;1.10;;;;;;;22.00;60.22;101886.25;4992150;28;20046;-64
2021/06/25 04:52:42;;;;;;;2.38;1.20;;;;;;;21.99;60.36;101888.09;5007984;28;20054;-63
2021/06/25 04:55:08;;;;;;;2.05;1.10;;;;;;;21.98;60.17;101889.09;5009525;28;20045;-63
2021/06/25 04:57:36;;;;;;;1.73;1.00;;;;;;;21.99;60.62;101889.94;5009510;28;20030;-65
2021/06/25 05:00:02;;;;;;;2.70;1.10;;;;;;;21.99;60.14;101896.09;5008989;28;20072;-63
2021/06/25 05:02:27;;;;;;;3.28;1.33;;;;;;;21.98;60.44;101907.81;5009757;28;20042;-63
2021/06/25 05:04:53;;;;;;;2.08;1.02;;;;;;;21.98;60.44;101910.47;5008004;28;20062;-63
2021/06/25 05:07:18;;;;;;;1.67;1.00;;;;;;;21.98;60.32;101907.81;5008904;28;20038;-63
2021/06/25 05:09:44;;;;;;;1.80;1.10;;;;;;;21.97;60.61;101900.81;4992095;28;20568;-63
2021/06/25 05:12:09;;;;;;;2.38;1.05;;;;;;;21.99;60.67;101916.66;5009411;28;20449;-63
2021/06/25 05:14:35;;;;;;;2.25;1.02;;;;;;;21.98;60.66;101910.47;4992206;28;20401;-63
2021/06/25 05:17:00;;;;;;;2.47;1.30;;;;;;;21.97;60.14;101906.16;4992040;28;20033;-64
2021/06/25 05:19:26;;;;;;;2.65;1.10;;;;;;;21.97;60.68;101898.16;4992552;28;20513;-63
2021/06/25 05:21:51;;;;;;;2.45;0.98;;;;;;;21.97;60.39;101903.50;5007976;28;20044;-63
2021/06/25 05:24:16;;;;;;;3.17;1.10;;;;;;;21.97;60.64;101897.31;4992653;28;20061;-64
2021/06/25 05:26:42;;;;;;;1.40;0.90;;;;;;;21.97;60.42;101890.13;5008682;28;20038;-63
2021/06/25 05:29:07;;;;;;;1.75;0.90;;;;;;;21.97;60.42;101886.63;5009741;28;20034;-63
2021/06/25 05:31:33;;;;;;;2.72;1.10;;;;;;;21.96;60.30;101877.78;5009082;28;20034;-63
2021/06/25 05:33:59;;;;;;;1.35;0.80;;;;;;;21.96;60.50;101907.19;5008947;28;20034;-63
2021/06/25 05:36:25;;;;;;;1.70;1.02;;;;;;;21.96;60.37;101896.50;4990712;28;20049;-65
2021/06/25 05:38:50;;;;;;;2.30;1.00;;;;;;;21.96;60.50;101896.50;5009703;28;20544;-64
2021/06/25 05:41:16;;;;;;;2.15;1.20;;;;;;;21.96;60.14;101912.50;4999783;28;20045;-64
2021/06/25 05:43:42;;;;;;;2.67;1.00;;;;;;;21.95;60.23;101908.19;5000689;28;20037;-63
2021/06/25 05:46:09;;;;;;;1.85;0.85;;;;;;;21.95;60.36;101908.19;5008826;28;20542;-63
2021/06/25 05:48:34;;;;;;;2.03;1.17;;;;;;;21.95;59.92;101907.38;5009709;28;20038;-63
2021/06/25 05:51:00;;;;;;;1.67;0.90;;;;;;;21.95;60.28;101902.03;5006989;28;20057;-63
2021/06/25 05:53:25;;;;;;;1.98;1.00;;;;;;;21.95;60.29;101913.53;4996773;28;20124;-63
2021/06/25 05:55:51;;;;;;;2.25;0.95;;;;;;;21.93;60.19;101912.88;5000966;28;20037;-63
2021/06/25 05:58:17;;;;;;;1.73;1.00;;;;;;;21.95;60.29;101910.03;5009038;28;20033;-65
2021/06/25 06:00:43;;;;;;;3.55;1.17;;;;;;;21.94;59.85;101919.91;4999251;28;20045;-64
2021/06/25 06:03:08;;;;;;;2.22;1.05;;;;;;;21.94;60.03;101911.88;4995386;28;20113;-63
2021/06/25 06:05:34;;;;;;;2.95;1.45;;;;;;;21.93;60.17;101907.53;5008229;28;20040;-63
2021/06/25 06:08:00;;;;;;;2.15;1.00;;;;;;;21.94;59.96;101906.53;4990730;28;20038;-63
2021/06/25 06:10:25;;;;;;;1.77;1.00;;;;;;;21.93;60.04;101904.84;4991743;28;20073;-63
2021/06/25 06:12:50;;;;;;;1.55;0.90;;;;;;;21.93;59.99;101907.53;4991239;28;20037;-64
2021/06/25 06:15:17;;;;;;;1.17;0.80;;;;;;;21.93;59.73;101910.19;5008809;28;20473;-64
2021/06/25 06:17:47;;;;;;;3.88;1.10;;;;;;;21.94;60.12;101908.38;5002920;28;20038;-63
2021/06/25 06:20:17;;;;;;;2.80;1.08;;;;;;;21.94;60.02;101905.72;5008486;28;20046;-63
2021/06/25 06:36:28;;;;;;;1.90;1.30;;;;;;;21.88;59.54;101920.63;5015058;28;20366;-64
2021/06/25 06:38:54;;;;;;;2.55;1.10;;;;;;;21.90;59.52;101915.09;5015146;28;20045;-63
2021/06/25 06:41:20;;;;;;;2.08;1.08;;;;;;;21.90;59.85;101907.91;5015016;28;20029;-63
2021/06/25 06:43:47;;;;;;;3.28;1.00;;;;;;;21.90;59.92;101907.91;5003289;28;20046;-63
2021/06/25 06:46:13;;;;;;;2.15;1.10;;;;;;;21.90;59.31;101905.22;5012541;28;20046;-65
2021/06/25 06:48:44;;;;;;;2.72;1.20;;;;;;;21.89;59.40;101911.59;5007819;28;20113;-64
2021/06/25 06:51:11;;;;;;;3.22;1.00;;;;;;;21.88;59.48;101907.25;4996814;28;20384;-64
2021/06/25 06:53:42;;;;;;;2.17;1.00;;;;;;;21.89;59.53;101916.94;5015152;28;20033;-64
2021/06/25 06:56:10;;;;;;;2.15;0.70;;;;;;;21.90;59.63;101912.41;4979548;28;20081;-64
2021/06/25 06:58:35;;;;;;;1.52;0.90;;;;;;;21.89;59.36;101916.09;5007534;28;20034;-63
2021/06/25 07:01:01;;;;;;;2.47;1.05;;;;;;;21.89;59.15;101916.09;4990847;28;20525;-66
2021/06/25 07:03:26;;;;;;;2.05;0.90;;;;;;;21.88;59.06;101915.28;5007011;28;20048;-64
2021/06/25 07:05:52;;;;;;;1.75;0.90;;;;;;;21.87;59.20;101924.31;5010628;28;20050;-64
2021/06/25 07:08:17;;;;;;;2.33;1.02;;;;;;;21.87;59.39;101926.16;5013706;28;20045;-65
2021/06/25 07:10:42;;;;;;;3.88;1.10;;;;;;;21.88;59.35;101919.78;5015073;28;20045;-69
2021/06/25 07:13:08;;;;;;;4.03;1.08;;;;;;;21.88;59.56;101915.28;4977274;28;20037;-65
2021/06/25 07:15:33;;;;;;;2.38;1.00;;;;;;;21.86;59.16;101903.94;4997447;28;20717;-66
2021/06/25 07:17:59;;;;;;;2.58;1.00;;;;;;;21.87;58.97;101918.97;5000467;28;20034;-64
2021/06/25 07:20:24;;;;;;;3.35;1.10;;;;;;;21.87;58.83;101920.81;5002187;28;20042;-65
2021/06/25 07:22:50;;;;;;;3.30;1.10;;;;;;;21.87;58.80;101923.47;4999689;28;20076;-65
2021/06/25 07:25:15;;;;;;;8.05;1.10;;;;;;;21.86;58.95;101921.81;4999578;28;20048;-64
2021/06/25 07:27:42;;;;;;;9.18;1.67;;;;;;;21.86;58.47;101924.50;4997564;28;20042;-65
2021/06/25 07:30:08;;;;;;;5.97;1.63;;;;;;;21.85;58.65;101923.66;4996144;28;20503;-65
2021/06/25 07:32:33;;;;;;;6.25;1.40;;;;;;;21.83;58.36;101934.53;4995381;28;20041;-64
2021/06/25 07:34:59;;;;;;;5.55;1.40;;;;;;;21.82;58.14;101932.88;4975976;28;20027;-64
2021/06/25 07:37:25;;;;;;;8.95;1.70;;;;;;;21.81;57.87;101931.22;4995945;28;20042;-65
2021/06/25 07:39:50;;;;;;;6.65;1.55;;;;;;;21.81;57.50;101925.06;4993943;28;20041;-65
2021/06/25 07:42:16;;;;;;;9.82;1.95;;;;;;;21.79;57.24;101925.25;4993679;28;20390;-68
2021/06/25 07:44:41;;;;;;;10.30;1.67;;;;;;;21.79;57.12;101929.75;5000766;28;20050;-69
2021/06/25 07:47:07;;;;;;;13.48;2.53;;;;;;;21.78;56.54;101930.78;4993532;28;20046;-67
2021/06/25 07:49:34;;;;;;;10.65;1.77;;;;;;;21.78;56.64;101928.09;5005133;28;20026;-67
2021/06/25 07:51:59;;;;;;;21.02;2.58;;;;;;;21.77;56.34;101931.75;5009677;28;20108;-67
2021/06/25 07:54:25;;;;;;;17.75;2.78;;;;;;;21.76;56.30;101928.25;4997875;28;20034;-67
2021/06/25 07:56:50;;;;;;;12.85;2.53;;;;;;;21.75;55.80;101925.78;4977174;28;20583;-67
2021/06/25 07:59:16;;;;;;;16.70;3.00;;;;;;;21.76;55.71;101932.78;5005942;28;20397;-66
2021/06/25 08:01:41;;;;;;;15.60;3.67;;;;;;;21.77;55.86;101927.25;5011022;28;20046;-67
2021/06/25 08:04:07;;;;;;;21.45;3.83;;;;;;;21.75;55.72;101934.59;5010575;28;20037;-66
2021/06/25 08:06:32;;;;;;;12.70;3.50;;;;;;;21.75;55.61;101934.59;5009062;28;20049;-69
2021/06/25 08:08:58;;;;;;;13.27;2.72;;;;;;;21.74;55.33;101932.13;4991674;28;20065;-70
2021/06/25 08:11:23;;;;;;;12.45;2.92;;;;;;;21.70;54.74;101934.34;4958569;28;20026;-69
2021/06/25 08:13:49;;;;;;;9.23;2.92;;;;;;;21.68;54.05;101935.53;4974960;28;20038;-67
2021/06/25 08:16:14;;;;;;;9.35;2.10;;;;;;;21.63;53.53;101933.44;5000807;28;20042;-70
2021/06/25 08:18:40;;;;;;;11.73;2.80;;;;;;;21.61;52.95;101939.94;4992099;28;20470;-66
2021/06/25 08:21:05;;;;;;;13.80;2.45;;;;;;;21.58;52.52;101942.97;5007920;28;20405;-66
2021/06/25 08:23:31;;;;;;;11.35;2.72;;;;;;;21.55;51.98;101932.69;5008539;28;20115;-66
2021/06/25 08:25:56;;;;;;;8.75;2.22;;;;;;;21.50;51.41;101933.22;4976372;28;20033;-66
2021/06/25 08:28:22;;;;;;;7.07;1.98;;;;;;;21.46;51.03;101932.78;4993220;28;20529;-67
2021/06/25 08:30:48;;;;;;;8.48;2.42;;;;;;;21.43;50.62;101935.78;4986374;28;20112;-66
2021/06/25 08:33:14;;;;;;;8.40;1.60;;;;;;;21.39;50.09;101939.00;5011477;28;20061;-66
2021/06/25 08:35:40;;;;;;;7.80;2.30;;;;;;;21.34;50.12;101934.22;5005297;28;20068;-66
2021/06/25 08:38:05;;;;;;;6.32;2.08;;;;;;;21.32;50.10;101930.91;5007478;28;20041;-66
2021/06/25 08:40:31;;;;;;;7.53;1.98;;;;;;;21.29;49.94;101936.56;5010609;28;20099;-66
2021/06/25 08:42:56;;;;;;;10.35;2.20;;;;;;;21.29;49.67;101927.75;4992249;28;20049;-66
2021/06/25 08:45:23;;;;;;;11.18;2.03;;;;;;;21.27;49.60;101933.25;5010507;28;20038;-67
2021/06/25 08:47:51;;;;;;;7.35;1.90;;;;;;;21.26;49.66;101931.59;5010224;28;20029;-66
2021/06/25 08:50:21;;;;;;;8.00;2.28;;;;;;;21.25;49.67;101935.28;5009976;28;20232;-67
2021/06/25 08:52:50;;;;;;;10.55;2.42;;;;;;;21.24;49.52;101928.25;4991376;28;20136;-66
2021/06/25 08:55:17;;;;;;;8.55;2.20;;;;;;;21.23;49.25;101937.28;5010051;28;20025;-66
2021/06/25 08:57:43;;;;;;;8.73;2.42;;;;;;;21.21;48.97;101932.13;5010417;28;20042;-66
2021/06/25 09:00:11;;;;;;;8.65;2.20;;;;;;;21.18;48.92;101931.66;5009900;28;20049;-66
2021/06/25 09:02:38;;;;;;;9.07;2.03;;;;;;;21.17;48.86;101933.50;5010218;28;20038;-68
2021/06/25 09:05:06;;;;;;;7.40;1.70;;;;;;;21.15;48.52;101937.38;4999471;28;20038;-67
2021/06/25 09:07:42;;;;;;;5.90;1.65;;;;;;;21.12;48.30;101940.38;4992599;28;20120;-66
2021/06/25 09:10:12;;;;;;;6.22;1.80;;;;;;;21.10;48.64;101935.22;5008951;28;20064;-67
2021/06/25 09:12:38;;;;;;;6.13;1.85;;;;;;;21.09;48.71;101936.22;5010104;28;20180;-66
2021/06/25 09:15:06;;;;;;;6.75;2.05;;;;;;;21.08;48.57;101939.06;5009729;28;20112;-67
2021/06/25 09:17:52;;;;;;;7.55;1.98;;;;;;;21.03;48.47;101933.47;5009758;28;20042;-67
2021/06/25 09:20:42;;;;;;;6.38;1.85;;;;;;;21.02;48.39;101943.28;4992680;28;20385;-66
2021/06/25 09:23:13;;;;;;;5.43;1.70;;;;;;;21.04;48.22;101941.28;5008431;28;20069;-66
2021/06/25 09:25:55;;;;;;;5.57;1.67;;;;;;;21.02;48.40;101939.81;5010252;28;20021;-67
2021/06/25 09:28:27;;;;;;;5.80;1.55;;;;;;;21.03;48.32;101941.47;5009496;28;20145;-66
2021/06/25 09:30:53;;;;;;;5.43;1.35;;;;;;;21.03;48.18;101946.78;5009694;28;20548;-67
2021/06/25 09:33:19;;;;;;;6.55;1.60;;;;;;;21.02;48.08;101935.28;5009059;28;20061;-66
2021/06/25 09:35:50;;;;;;;5.00;1.50;;;;;;;21.01;48.25;101943.47;4991102;28;20076;-66
2021/06/25 09:38:30;;;;;;;5.05;1.80;;;;;;;21.00;48.22;101931.97;5008595;28;20030;-66
2021/06/25 09:40:55;;;;;;;5.70;1.60;;;;;;;21.02;48.33;101929.97;4981409;28;20033;-66
2021/06/25 09:43:21;;;;;;;4.53;1.45;;;;;;;21.01;48.26;101936.31;5009367;28;20109;-66
2021/06/25 09:45:50;;;;;;;5.25;1.70;;;;;;;21.00;48.00;101944.50;4996743;28;20536;-66
2021/06/25 09:48:16;;;;;;;6.05;1.65;;;;;;;21.01;48.33;101938.16;5002669;28;20030;-66
2021/06/25 09:50:43;;;;;;;4.78;1.42;;;;;;;21.00;47.93;101949.81;4984960;28;20038;-66
2021/06/25 09:53:09;;;;;;;4.72;1.48;;;;;;;21.00;47.96;101952.50;5008111;28;20141;-66
2021/06/25 09:55:54;;;;;;;6.68;1.48;;;;;;;21.00;47.89;101952.50;5009565;28;20517;-66
2021/06/25 10:01:25;;;;;;;3.03;1.15;;;;;;;20.98;48.04;101960.66;5009492;28;20042;-66
2021/06/25 10:03:57;;;;;;;7.93;2.25;;;;;;;21.01;48.22;101956.81;4999519;28;20109;-66
2021/06/25 10:06:25;;;;;;;6.30;1.45;;;;;;;21.01;48.39;101956.81;5007151;28;20036;-68
2021/06/25 10:08:52;;;;;;;4.95;1.50;;;;;;;21.00;47.71;101949.81;5009207;28;20022;-66
2021/06/25 10:11:23;;;;;;;4.13;1.30;;;;;;;20.98;48.10;101959.81;5008476;28;20188;-66
2021/06/25 10:13:51;;;;;;;6.55;1.63;;;;;;;20.97;47.85;101966.16;4992867;28;20026;-66
2021/06/25 10:16:17;;;;;;;7.07;1.80;;;;;;;20.96;47.74;101959.16;4991091;28;20124;-66
2021/06/25 10:18:49;;;;;;;6.38;1.52;;;;;;;20.93;47.71;101963.84;5008956;28;20582;-66
2021/06/25 10:21:30;;;;;;;5.82;2.00;;;;;;;20.91;48.10;101968.53;5008001;28;20473;-67
2021/06/25 10:23:58;;;;;;;4.13;1.50;;;;;;;20.93;48.13;101966.53;4997208;28;20076;-65
2021/06/25 10:26:24;;;;;;;6.47;1.65;;;;;;;20.93;48.15;101974.53;5008463;28;20113;-66
2021/06/25 10:28:51;;;;;;;4.15;1.77;;;;;;;20.93;47.75;101968.38;5007932;28;20026;-66
2021/06/25 10:31:21;;;;;;;5.88;1.40;;;;;;;20.93;47.82;101976.38;5008628;28;20054;-66
2021/06/25 10:33:46;;;;;;;4.60;1.30;;;;;;;20.92;48.26;101970.19;5008521;28;20061;-67
2021/06/25 10:36:14;;;;;;;6.63;1.80;;;;;;;20.91;48.10;101965.88;5008062;28;20069;-67
2021/06/25 10:38:43;;;;;;;3.92;1.20;;;;;;;20.92;48.18;101974.72;5009141;28;20104;-66
2021/06/25 10:41:11;;;;;;;4.65;1.20;;;;;;;20.93;48.17;101969.19;4991406;28;20088;-66
2021/06/25 10:43:44;;;;;;;5.10;1.30;;;;;;;20.92;47.95;101967.53;5009230;28;20038;-66
2021/06/25 10:46:43;;;;;;;6.13;1.65;;;;;;;20.88;47.94;101979.56;5008121;28;20041;-66
2021/06/25 10:49:14;;;;;;;4.75;1.30;;;;;;;20.90;48.07;101972.22;4979597;28;20073;-66
2021/06/25 10:51:44;;;;;;;4.13;1.50;;;;;;;20.90;47.98;101972.22;4993211;28;20392;-66
2021/06/25 10:54:23;;;;;;;4.43;1.40;;;;;;;20.88;48.03;101979.56;5008270;28;20038;-66
2021/06/25 10:56:48;;;;;;;7.50;1.50;;;;;;;20.89;47.79;101967.91;4996165;28;20473;-66
2021/06/25 10:59:23;;;;;;;4.65;1.20;;;;;;;20.88;47.86;101968.06;5008609;28;20041;-66
2021/06/25 11:01:54;;;;;;;3.17;1.13;;;;;;;20.86;48.00;101981.59;4995344;28;20069;-66
2021/06/25 11:04:41;;;;;;;4.00;1.48;;;;;;;20.83;47.92;101973.94;5008246;28;20038;-66
2021/06/25 11:07:37;;;;;;;6.50;1.40;;;;;;;20.84;48.12;101975.59;4997118;28;20045;-66
2021/06/25 11:10:05;;;;;;;6.82;1.42;;;;;;;20.86;48.13;101972.75;5009993;28;20030;-69
2021/06/25 11:12:35;;;;;;;6.43;1.40;;;;;;;20.85;47.71;101976.44;5012183;28;20368;-66
2021/06/25 11:15:04;;;;;;;4.43;1.10;;;;;;;20.86;48.11;101972.75;5012342;28;20160;-66
2021/06/25 11:17:48;;;;;;;5.45;1.48;;;;;;;20.82;47.91;101972.25;5011976;28;20122;-66
2021/06/25 11:20:16;;;;;;;8.20;1.42;;;;;;;20.84;48.05;101967.59;5011897;28;20255;-66
2021/06/25 11:22:42;;;;;;;4.28;1.35;;;;;;;20.87;48.11;101974.41;5010274;28;20034;-66
2021/06/25 11:25:36;;;;;;;4.20;1.15;;;;;;;20.83;48.31;101973.94;5011549;28;20045;-67
2021/06/25 11:28:38;;;;;;;4.60;1.23;;;;;;;20.83;48.15;101968.63;5012031;28;20038;-67
2021/06/25 11:31:17;;;;;;;5.30;1.13;;;;;;;20.84;47.96;101962.28;5001710;28;20029;-69
2021/06/25 11:33:57;;;;;;;4.72;1.45;;;;;;;20.85;47.92;101968.44;4994366;28;20481;-67
2021/06/25 11:36:33;;;;;;;5.72;1.10;;;;;;;20.84;47.83;101978.28;5010341;28;20072;-64
2021/06/25 11:39:04;;;;;;;3.25;1.27;;;;;;;20.84;48.07;101975.59;5011557;28;20044;-65
2021/06/25 11:41:38;;;;;;;2.72;0.82;;;;;;;20.83;48.07;101981.13;5004909;28;20049;-65
2021/06/25 11:44:29;;;;;;;5.05;0.85;;;;;;;20.81;48.34;101988.44;5005900;28;20061;-65